Time;durP1;ratioP1;P1;durP2;ratioP2;P2;SDS_P1;SDS_P2;PMS_P1;PMS_P2;Temp;Humidity;BMP_temperature;BMP_pressure;BME280_temperature;BME280_humidity;BME280_pressure;Samples;Min_cycle;Max_cycle;Signal;HPM_P1;HPM_P2
2023/05/13 05:25:35;;;;;;;5.50;3.55;;;15.10;66.10;;;;;;5061108;28;20068;-69
2023/05/13 05:28:03;;;;;;;5.50;3.70;;;15.20;66.10;;;;;;5050739;28;20061;-70
2023/05/13 05:30:31;;;;;;;7.22;3.90;;;15.20;66.20;;;;;;5045690;28;20087;-69
2023/05/13 05:32:58;;;;;;;6.07;4.05;;;15.30;66.20;;;;;;5042896;28;20029;-67
2023/05/13 05:35:23;;;;;;;6.20;3.80;;;15.40;66.10;;;;;;5046135;28;20076;-68
2023/05/13 05:37:51;;;;;;;7.10;3.40;;;15.40;65.80;;;;;;5045183;28;20486;-67
2023/05/13 05:40:16;;;;;;;6.82;3.50;;;15.50;66.30;;;;;;5047148;28;20132;-66
2023/05/13 05:42:42;;;;;;;4.93;3.13;;;15.50;65.70;;;;;;5046502;28;20151;-66
2023/05/13 05:45:08;;;;;;;7.43;3.47;;;15.60;65.60;;;;;;5044941;28;20032;-66
2023/05/13 05:47:34;;;;;;;5.10;2.80;;;15.60;65.50;;;;;;5044194;28;20048;-64
2023/05/13 05:49:59;;;;;;;8.00;3.90;;;15.70;65.60;;;;;;5045854;28;20116;-66
2023/05/13 05:52:25;;;;;;;5.85;3.35;;;15.80;65.50;;;;;;5043652;28;20049;-65
2023/05/13 05:54:50;;;;;;;5.80;3.55;;;15.80;65.40;;;;;;5046642;28;20041;-65
2023/05/13 05:57:16;;;;;;;9.48;3.53;;;15.90;65.30;;;;;;5048547;28;20037;-66
2023/05/13 05:59:42;;;;;;;12.38;3.45;;;16.00;64.80;;;;;;5041624;28;20085;-66
2023/05/13 06:02:08;;;;;;;5.28;3.47;;;16.00;64.50;;;;;;5049146;28;20044;-66
2023/05/13 06:04:33;;;;;;;8.30;3.60;;;16.10;64.50;;;;;;5048152;28;20064;-66
2023/05/13 06:06:59;;;;;;;11.05;4.07;;;16.10;64.10;;;;;;5049653;28;20448;-67
2023/05/13 06:09:24;;;;;;;7.13;3.15;;;16.20;64.00;;;;;;5050508;28;20521;-65
2023/05/13 06:11:50;;;;;;;7.90;3.30;;;16.30;63.80;;;;;;5050001;28;20147;-66
2023/05/13 06:14:16;;;;;;;5.03;3.03;;;16.30;63.60;;;;;;5045104;28;20063;-66
2023/05/13 06:16:41;;;;;;;11.80;4.45;;;16.40;63.40;;;;;;5049467;28;20033;-66
2023/05/13 06:19:07;;;;;;;8.18;3.65;;;16.40;63.00;;;;;;5048062;28;20033;-63
2023/05/13 06:21:33;;;;;;;4.85;2.58;;;16.50;62.80;;;;;;5049799;28;20040;-66
2023/05/13 06:23:59;;;;;;;8.40;3.50;;;16.50;62.70;;;;;;5049394;28;20127;-66
2023/05/13 06:26:25;;;;;;;5.90;2.78;;;16.60;62.60;;;;;;5039197;28;20040;-66
2023/05/13 06:28:50;;;;;;;6.22;3.08;;;16.70;62.40;;;;;;5067241;28;20537;-66
2023/05/13 06:31:16;;;;;;;5.03;3.13;;;16.70;62.30;;;;;;5067856;28;20094;-66
2023/05/13 06:33:42;;;;;;;4.80;2.90;;;16.80;62.90;;;;;;5068735;28;20058;-66
2023/05/13 06:36:08;;;;;;;6.35;3.75;;;16.90;62.40;;;;;;5064408;28;20051;-66
2023/05/13 06:38:34;;;;;;;5.90;2.83;;;17.00;61.90;;;;;;5051682;28;20045;-66
2023/05/13 06:40:59;;;;;;;4.55;2.70;;;17.00;61.60;;;;;;5068646;28;20077;-66
2023/05/13 06:43:25;;;;;;;7.00;2.67;;;17.10;61.30;;;;;;5070169;28;20076;-66
2023/05/13 06:45:51;;;;;;;6.65;2.97;;;17.10;60.70;;;;;;5066943;28;20095;-65
2023/05/13 06:48:16;;;;;;;4.03;2.65;;;17.10;60.70;;;;;;5068976;28;20453;-67
2023/05/13 06:50:42;;;;;;;5.78;3.17;;;17.20;60.50;;;;;;5052148;28;20409;-66
2023/05/13 06:53:11;;;;;;;5.60;2.92;;;17.20;60.40;;;;;;5067034;28;20504;-67
2023/05/13 06:55:40;;;;;;;4.95;2.80;;;17.30;59.80;;;;;;5067520;28;20044;-66
2023/05/13 06:58:07;;;;;;;4.65;2.80;;;17.30;59.70;;;;;;5068371;28;20071;-66
2023/05/13 07:00:36;;;;;;;8.13;3.28;;;17.40;59.20;;;;;;5064443;28;20064;-66
2023/05/13 07:03:02;;;;;;;6.85;2.80;;;17.50;59.20;;;;;;5068028;28;20060;-66
2023/05/13 07:05:28;;;;;;;6.25;2.65;;;17.50;58.40;;;;;;5068367;28;20045;-67
2023/05/13 07:07:53;;;;;;;4.25;2.92;;;17.70;58.20;;;;;;5064075;28;20060;-67
2023/05/13 07:10:19;;;;;;;5.47;2.90;;;17.70;58.20;;;;;;5062646;28;20036;-67
2023/05/13 07:12:45;;;;;;;7.70;2.88;;;17.80;57.60;;;;;;5067862;28;20048;-68
2023/05/13 07:15:10;;;;;;;6.22;2.85;;;17.80;56.90;;;;;;5063404;28;20397;-66
2023/05/13 07:17:36;;;;;;;5.07;2.50;;;17.90;56.70;;;;;;5067773;28;20405;-66
2023/05/13 07:20:02;;;;;;;5.45;2.88;;;17.90;56.70;;;;;;5066726;28;20039;-68
2023/05/13 07:22:27;;;;;;;3.50;2.20;;;18.00;56.70;;;;;;5065788;28;20501;-67
2023/05/13 07:24:53;;;;;;;6.53;2.97;;;18.10;56.30;;;;;;5063538;28;20040;-67
2023/05/13 07:27:20;;;;;;;4.57;2.75;;;18.10;56.20;;;;;;5068706;28;20114;-68
2023/05/13 07:29:46;;;;;;;3.33;2.28;;;18.20;56.10;;;;;;5061902;28;20045;-67
2023/05/13 07:32:11;;;;;;;4.55;2.70;;;18.30;56.20;;;;;;5067603;28;20096;-67
2023/05/13 07:34:37;;;;;;;5.05;2.40;;;18.40;56.30;;;;;;5060545;28;20067;-67
2023/05/13 07:37:03;;;;;;;3.85;2.30;;;18.50;56.00;;;;;;5068856;28;20131;-67
2023/05/13 07:39:29;;;;;;;4.18;2.38;;;18.50;55.10;;;;;;5060302;28;20514;-67
2023/05/13 07:41:55;;;;;;;3.70;2.22;;;18.60;54.10;;;;;;5057078;28;20049;-67
2023/05/13 07:44:20;;;;;;;3.80;2.60;;;18.70;53.60;;;;;;5066451;28;20037;-67
2023/05/13 07:46:47;;;;;;;6.03;2.67;;;18.80;52.80;;;;;;5061557;28;20036;-66
2023/05/13 07:49:13;;;;;;;7.90;2.50;;;18.80;51.90;;;;;;5059186;28;20040;-68
2023/05/13 07:51:39;;;;;;;5.45;2.30;;;18.80;51.60;;;;;;5058533;28;20043;-68
2023/05/13 07:54:04;;;;;;;7.18;2.65;;;18.90;51.70;;;;;;5062036;28;20471;-68
2023/05/13 07:56:30;;;;;;;7.10;2.40;;;18.90;51.70;;;;;;5073318;28;20039;-68
2023/05/13 07:58:57;;;;;;;3.55;2.38;;;19.00;51.60;;;;;;5063794;28;22113;-67
2023/05/13 08:01:22;;;;;;;5.28;2.42;;;19.00;51.30;;;;;;5067277;28;20398;-67
2023/05/13 08:03:48;;;;;;;3.10;2.28;;;19.00;51.60;;;;;;5066509;28;20056;-67
2023/05/13 08:06:13;;;;;;;5.80;2.42;;;19.10;51.50;;;;;;5062949;28;20033;-67
2023/05/13 08:08:39;;;;;;;5.22;2.45;;;19.10;51.60;;;;;;5058810;28;20485;-67
2023/05/13 08:11:05;;;;;;;7.07;2.30;;;19.10;51.50;;;;;;5049362;28;20469;-67
2023/05/13 08:13:31;;;;;;;3.25;2.25;;;19.10;51.80;;;;;;5059109;28;20056;-68
2023/05/13 08:16:02;;;;;;;4.85;2.15;;;19.10;51.90;;;;;;5065111;28;20928;-68
2023/05/13 08:18:28;;;;;;;5.55;3.03;;;19.10;52.10;;;;;;5067441;28;20043;-67
2023/05/13 08:20:54;;;;;;;5.05;2.45;;;19.20;52.20;;;;;;5066510;28;20049;-68
2023/05/13 08:23:20;;;;;;;18.88;3.58;;;19.20;52.20;;;;;;5066539;28;20048;-68
2023/05/13 08:25:45;;;;;;;4.03;2.28;;;19.30;52.30;;;;;;5062642;28;20449;-66
2023/05/13 08:28:11;;;;;;;4.43;2.35;;;19.30;52.10;;;;;;5020739;28;20056;-67
2023/05/13 08:30:39;;;;;;;3.88;3.00;;;19.40;52.30;;;;;;5049262;28;20037;-67
2023/05/13 08:33:05;;;;;;;6.03;2.90;;;19.40;52.30;;;;;;5048872;28;20037;-67
2023/05/13 08:35:31;;;;;;;4.35;2.30;;;19.50;52.60;;;;;;5049119;28;20430;-67
2023/05/13 08:37:56;;;;;;;14.40;3.38;;;19.60;52.50;;;;;;5048615;28;20126;-67
2023/05/13 08:40:22;;;;;;;4.88;2.42;;;19.60;52.40;;;;;;5047141;28;20029;-67
2023/05/13 08:42:50;;;;;;;4.70;2.40;;;19.60;52.30;;;;;;5038586;28;20063;-66
2023/05/13 08:45:19;;;;;;;15.02;3.47;;;19.70;52.10;;;;;;5041159;28;20112;-67
2023/05/13 08:47:57;;;;;;;4.30;2.38;;;19.80;52.00;;;;;;5048142;28;20051;-67
2023/05/13 08:50:24;;;;;;;6.40;2.80;;;19.80;51.90;;;;;;5038404;28;20037;-68
2023/05/13 08:52:54;;;;;;;4.28;2.58;;;19.90;52.40;;;;;;5038161;28;20064;-67
2023/05/13 08:55:21;;;;;;;6.78;3.70;;;19.90;52.30;;;;;;5048230;28;20041;-66
2023/05/13 08:57:46;;;;;;;3.85;2.33;;;20.00;52.50;;;;;;5047897;28;20076;-68
2023/05/13 09:00:13;;;;;;;4.32;2.30;;;20.10;52.90;;;;;;5026109;28;20512;-70
2023/05/13 09:02:40;;;;;;;6.68;2.28;;;20.10;52.70;;;;;;5048263;28;20067;-64
2023/05/13 09:05:07;;;;;;;3.25;2.15;;;20.20;52.60;;;;;;5047037;28;20513;-67
2023/05/13 09:07:34;;;;;;;3.47;2.17;;;20.30;51.50;;;;;;5049001;28;20036;-68
2023/05/13 09:10:00;;;;;;;4.00;2.80;;;20.20;51.70;;;;;;5046772;28;20044;-65
2023/05/13 09:12:43;;;;;;;4.82;1.90;;;20.30;50.60;;;;;;5047139;28;20037;-68
2023/05/13 09:15:11;;;;;;;5.80;2.42;;;20.40;50.50;;;;;;5029721;28;20108;-66
2023/05/13 09:17:44;;;;;;;4.72;2.53;;;20.50;50.80;;;;;;5048615;28;20045;-64
2023/05/13 09:20:12;;;;;;;2.72;1.98;;;20.50;50.80;;;;;;5041204;28;20041;-68
2023/05/13 09:22:53;;;;;;;4.60;2.25;;;20.60;50.60;;;;;;5040566;28;20041;-69
2023/05/13 09:25:22;;;;;;;4.68;2.22;;;20.60;50.40;;;;;;5047590;28;20041;-67
2023/05/13 09:27:51;;;;;;;8.63;2.10;;;20.70;50.30;;;;;;5052526;28;20076;-67
2023/05/13 09:30:18;;;;;;;3.80;2.08;;;20.80;50.00;;;;;;5068116;28;20036;-67
2023/05/13 09:32:44;;;;;;;6.65;2.97;;;20.90;49.60;;;;;;5063781;28;20064;-67
2023/05/13 09:35:18;;;;;;;4.70;2.30;;;20.90;49.90;;;;;;5068074;28;20087;-67
2023/05/13 09:37:45;;;;;;;5.57;2.20;;;21.00;49.60;;;;;;5072206;28;20039;-67
2023/05/13 09:40:15;;;;;;;7.30;2.72;;;21.10;48.70;;;;;;5070621;28;20132;-67
2023/05/13 09:42:45;;;;;;;3.88;2.30;;;21.10;48.50;;;;;;5071010;28;20044;-67
2023/05/13 09:45:15;;;;;;;5.53;2.80;;;21.20;47.50;;;;;;5061362;28;20044;-67
2023/05/13 09:47:41;;;;;;;6.55;2.30;;;21.30;46.80;;;;;;5060176;28;20048;-67
2023/05/13 09:50:08;;;;;;;10.63;2.47;;;21.40;47.00;;;;;;5045952;28;20402;-67
2023/05/13 09:52:35;;;;;;;3.65;2.42;;;21.50;46.80;;;;;;5062114;28;20145;-67
2023/05/13 09:55:04;;;;;;;5.75;1.98;;;21.50;45.40;;;;;;5062111;28;20033;-66
2023/05/13 09:57:31;;;;;;;4.55;1.85;;;21.50;45.90;;;;;;5067439;28;20131;-66
2023/05/13 10:00:01;;;;;;;5.20;2.08;;;21.60;45.90;;;;;;5072382;28;20036;-67
2023/05/13 10:02:27;;;;;;;6.13;2.45;;;21.70;45.10;;;;;;5061095;28;20048;-67
2023/05/13 10:04:57;;;;;;;2.95;1.77;;;21.70;45.20;;;;;;5067971;28;20455;-66
2023/05/13 10:07:24;;;;;;;4.85;2.10;;;21.70;44.10;;;;;;5065016;28;20064;-66
2023/05/13 10:09:57;;;;;;;5.10;2.17;;;21.70;44.80;;;;;;5072508;28;20531;-66
2023/05/13 10:12:27;;;;;;;2.38;1.65;;;21.70;44.20;;;;;;5060239;28;20494;-66
2023/05/13 10:14:54;;;;;;;3.88;2.42;;;21.70;44.10;;;;;;5061200;28;20586;-66
2023/05/13 10:17:22;;;;;;;4.88;2.00;;;21.80;44.10;;;;;;5072907;28;20025;-66
2023/05/13 10:19:52;;;;;;;3.33;2.00;;;21.90;44.10;;;;;;5066358;28;20033;-66
2023/05/13 10:22:29;;;;;;;7.15;2.17;;;22.00;44.50;;;;;;5052370;28;20044;-66
2023/05/13 10:24:57;;;;;;;4.50;2.25;;;22.00;44.00;;;;;;5053281;28;20037;-66
2023/05/13 10:27:27;;;;;;;2.47;1.90;;;22.00;43.20;;;;;;5043350;28;20060;-66
2023/05/13 10:29:54;;;;;;;2.25;1.73;;;22.10;43.30;;;;;;5050952;28;20116;-67
2023/05/13 10:32:25;;;;;;;5.70;2.00;;;22.10;43.90;;;;;;5035715;28;20045;-67
2023/05/13 10:34:58;;;;;;;5.90;1.92;;;22.00;42.80;;;;;;5033310;28;20037;-66
2023/05/13 10:37:29;;;;;;;4.40;2.45;;;22.00;42.60;;;;;;5037750;28;20045;-66
2023/05/13 10:40:04;;;;;;;4.28;2.03;;;22.10;42.90;;;;;;5049675;28;20079;-65
2023/05/13 10:42:32;;;;;;;;;;;22.10;43.00;;;;;;5051593;28;20130;-65
2023/05/13 10:44:58;;;;;;;3.42;2.15;;;22.00;42.70;;;;;;5049765;28;20013;-66
2023/05/13 10:47:23;;;;;;;3.47;2.10;;;22.00;43.10;;;;;;5050230;28;20052;-66
2023/05/13 10:49:53;;;;;;;2.13;1.50;;;22.00;43.00;;;;;;5050690;28;20040;-66
2023/05/13 10:52:19;;;;;;;6.32;2.40;;;22.00;42.90;;;;;;5051111;28;20040;-65
2023/05/13 10:55:01;;;;;;;33.70;18.63;;;21.90;42.30;;;;;;5051165;28;20033;-66
2023/05/13 10:57:36;;;;;;;27.52;11.35;;;21.90;42.80;;;;;;5050240;28;20048;-66
2023/05/13 11:00:14;;;;;;;17.55;8.75;;;21.90;42.90;;;;;;5032536;28;20043;-67
2023/05/13 11:02:40;;;;;;;18.88;6.95;;;22.00;42.40;;;;;;5049585;28;20045;-67
2023/05/13 11:05:06;;;;;;;7.13;3.00;;;22.00;42.80;;;;;;5050511;28;20029;-65
2023/05/13 11:07:38;;;;;;;7.78;2.80;;;22.10;42.40;;;;;;5049942;28;20049;-66
2023/05/13 11:10:22;;;;;;;3.80;1.95;;;22.10;42.10;;;;;;5048455;28;20390;-66
2023/05/13 11:13:27;;;;;;;4.40;1.90;;;22.10;41.80;;;;;;5045158;28;20498;-67
2023/05/13 11:15:54;;;;;;;4.30;1.75;;;22.10;41.80;;;;;;5043243;28;20402;-66
2023/05/13 11:18:28;;;;;;;5.07;2.25;;;22.20;41.70;;;;;;5049395;28;20029;-66
2023/05/13 11:20:55;;;;;;;4.03;1.92;;;22.20;41.70;;;;;;5049428;28;20045;-66
2023/05/13 11:23:21;;;;;;;2.92;1.92;;;22.20;41.50;;;;;;5049724;28;20410;-66
2023/05/13 11:26:10;;;;;;;6.20;2.50;;;22.20;41.50;;;;;;5049900;28;20375;-67
2023/05/13 11:28:59;;;;;;;5.38;2.20;;;22.20;41.70;;;;;;5040429;28;20108;-65
2023/05/13 11:31:42;;;;;;;4.45;2.13;;;22.30;41.90;;;;;;5031631;28;20120;-65
2023/05/13 11:34:16;;;;;;;5.13;2.03;;;22.30;40.90;;;;;;5044521;28;20041;-66
2023/05/13 11:36:48;;;;;;;6.00;2.57;;;22.20;40.20;;;;;;5045013;28;20029;-66
2023/05/13 11:39:18;;;;;;;8.98;2.88;;;22.20;41.00;;;;;;5040154;28;20291;-66
2023/05/13 11:41:48;;;;;;;4.45;2.42;;;22.30;41.30;;;;;;5047305;28;20051;-65
2023/05/13 11:44:18;;;;;;;5.05;1.98;;;22.40;41.20;;;;;;5049748;28;20494;-66
2023/05/13 11:47:00;;;;;;;5.50;2.22;;;22.40;40.60;;;;;;5031239;28;20107;-67
2023/05/13 11:49:40;;;;;;;3.83;2.05;;;22.40;40.80;;;;;;5031510;28;20489;-67
2023/05/13 11:52:08;;;;;;;5.43;1.63;;;22.40;40.70;;;;;;5043215;28;20033;-67
2023/05/13 11:54:52;;;;;;;4.63;2.40;;;22.40;41.20;;;;;;5042972;28;20044;-67
2023/05/13 11:57:26;;;;;;;3.53;1.77;;;22.50;41.70;;;;;;5031796;28;20128;-67
2023/05/13 11:59:55;;;;;;;3.08;1.95;;;22.50;41.40;;;;;;5043482;28;20091;-66
2023/05/13 12:02:29;;;;;;;5.32;1.88;;;22.50;40.90;;;;;;5017720;28;20068;-67
2023/05/13 12:05:00;;;;;;;2.58;1.90;;;22.50;40.70;;;;;;5048554;28;20040;-67
2023/05/13 12:07:26;;;;;;;5.32;1.88;;;22.50;40.70;;;;;;5048979;28;20151;-66
2023/05/13 12:09:55;;;;;;;4.32;1.90;;;22.50;40.40;;;;;;5031359;28;20041;-67
2023/05/13 12:12:20;;;;;;;5.80;2.22;;;22.50;40.50;;;;;;5048700;28;20060;-66
2023/05/13 12:14:49;;;;;;;2.15;1.52;;;22.60;40.80;;;;;;5047737;28;20567;-67
2023/05/13 12:17:15;;;;;;;4.32;2.10;;;22.60;40.70;;;;;;5039585;28;20047;-68
2023/05/13 12:20:19;;;;;;;7.88;2.05;;;22.70;40.70;;;;;;5049324;28;20486;-66
2023/05/13 12:22:44;;;;;;;3.45;2.03;;;22.70;40.30;;;;;;5045870;28;20098;-67
2023/05/13 12:25:35;;;;;;;5.50;2.65;;;22.70;40.60;;;;;;5047856;28;20028;-67
2023/05/13 12:28:09;;;;;;;4.18;2.00;;;22.70;40.60;;;;;;5059233;28;20529;-67
2023/05/13 12:30:40;;;;;;;3.30;1.92;;;22.70;40.50;;;;;;5029540;28;20033;-68
2023/05/13 12:33:12;;;;;;;2.97;1.85;;;22.70;40.80;;;;;;5042341;28;20041;-66
2023/05/13 12:35:37;;;;;;;4.93;2.50;;;22.80;41.00;;;;;;5049079;28;20067;-66
2023/05/13 12:38:04;;;;;;;3.22;1.92;;;22.80;40.60;;;;;;5038979;28;20069;-66
2023/05/13 12:40:30;;;;;;;4.45;2.10;;;22.90;40.70;;;;;;5036386;28;20543;-66
2023/05/13 12:43:00;;;;;;;3.85;2.15;;;22.90;40.50;;;;;;5038332;28;20057;-66
2023/05/13 12:45:30;;;;;;;3.05;1.75;;;22.90;40.70;;;;;;5040048;28;20095;-66
2023/05/13 12:47:56;;;;;;;6.00;1.83;;;23.00;41.00;;;;;;5035226;28;20037;-66
2023/05/13 12:50:22;;;;;;;3.78;2.00;;;23.10;40.80;;;;;;5048192;28;20091;-67
2023/05/13 12:52:48;;;;;;;3.55;2.30;;;23.10;40.80;;;;;;5046053;28;20099;-66
2023/05/13 12:55:20;;;;;;;5.10;2.25;;;23.10;40.60;;;;;;5034888;28;20041;-66
2023/05/13 12:57:56;;;;;;;5.72;2.20;;;23.10;40.60;;;;;;5049633;28;20068;-67
2023/05/13 13:00:22;;;;;;;4.40;2.60;;;23.10;41.20;;;;;;5043093;28;20095;-67
2023/05/13 13:02:48;;;;;;;4.50;2.10;;;23.10;41.10;;;;;;5032744;28;20073;-67
2023/05/13 13:05:13;;;;;;;3.70;1.95;;;23.20;41.30;;;;;;5053914;28;20052;-67
2023/05/13 13:07:41;;;;;;;4.93;2.25;;;23.30;41.20;;;;;;5053038;28;20079;-66
2023/05/13 13:10:07;;;;;;;4.65;2.20;;;23.30;40.70;;;;;;5041165;28;20035;-67
2023/05/13 13:12:32;;;;;;;4.50;2.00;;;23.30;40.80;;;;;;5051729;28;20144;-67
2023/05/13 13:14:58;;;;;;;6.97;2.35;;;23.20;41.20;;;;;;5055444;28;20474;-67
2023/05/13 13:17:24;;;;;;;4.47;2.38;;;23.30;41.40;;;;;;5040315;28;20040;-67
2023/05/13 13:19:50;;;;;;;5.28;2.10;;;23.40;41.10;;;;;;5054256;28;20565;-67
2023/05/13 13:22:15;;;;;;;9.32;2.38;;;23.40;41.00;;;;;;5053854;28;20060;-67
2023/05/13 13:24:41;;;;;;;3.97;1.73;;;23.40;41.00;;;;;;5037711;28;20032;-66
2023/05/13 13:27:06;;;;;;;3.03;1.90;;;23.60;41.20;;;;;;5054433;28;20142;-67
2023/05/13 13:29:32;;;;;;;3.67;1.92;;;23.70;41.40;;;;;;5056001;28;20032;-66
2023/05/13 13:31:58;;;;;;;4.43;2.22;;;23.80;41.40;;;;;;5051869;28;20044;-65
2023/05/13 13:34:23;;;;;;;5.72;2.55;;;23.90;41.10;;;;;;5038232;28;20044;-67
2023/05/13 13:36:49;;;;;;;5.97;2.17;;;24.00;41.20;;;;;;5054451;28;20566;-66
2023/05/13 13:39:14;;;;;;;5.05;2.30;;;24.00;41.20;;;;;;5054819;28;20037;-67
2023/05/13 13:41:40;;;;;;;4.95;2.22;;;24.00;41.30;;;;;;5054404;28;20504;-65
2023/05/13 13:44:07;;;;;;;4.97;2.47;;;24.10;41.50;;;;;;5055504;28;20060;-66
2023/05/13 13:46:32;;;;;;;7.22;3.13;;;24.00;41.50;;;;;;5054287;28;20039;-67
2023/05/13 13:48:58;;;;;;;3.25;2.05;;;23.90;41.30;;;;;;5054532;28;20552;-67
2023/05/13 13:51:23;;;;;;;3.58;2.28;;;23.90;41.40;;;;;;5054949;28;20039;-67
2023/05/13 13:53:49;;;;;;;3.97;2.35;;;23.80;41.20;;;;;;5055708;28;20075;-67
2023/05/13 13:56:15;;;;;;;4.63;2.20;;;23.70;41.20;;;;;;5044511;28;20042;-67
2023/05/13 13:58:40;;;;;;;5.85;2.20;;;23.60;41.10;;;;;;5054153;28;20110;-67
2023/05/13 14:01:06;;;;;;;5.65;2.40;;;23.70;41.40;;;;;;5048324;28;20039;-67
2023/05/13 14:03:32;;;;;;;5.40;2.38;;;23.90;41.90;;;;;;5054362;28;20056;-67
2023/05/13 14:05:57;;;;;;;3.80;2.05;;;24.00;41.90;;;;;;5054221;28;20059;-67
2023/05/13 14:08:23;;;;;;;4.18;2.00;;;24.10;41.60;;;;;;5055551;28;20083;-68
2023/05/13 14:10:49;;;;;;;3.97;1.95;;;24.10;41.20;;;;;;5030092;28;20056;-67
2023/05/13 14:13:15;;;;;;;4.45;2.28;;;24.20;41.00;;;;;;5042508;28;20382;-66
2023/05/13 14:15:40;;;;;;;3.33;2.15;;;24.30;41.10;;;;;;5051954;28;20040;-66
2023/05/13 14:18:09;;;;;;;6.03;2.42;;;24.30;41.10;;;;;;5049786;28;20120;-66
2023/05/13 14:20:34;;;;;;;4.03;2.08;;;24.50;41.30;;;;;;5050253;28;20097;-66
2023/05/13 14:23:01;;;;;;;3.67;1.88;;;24.60;41.20;;;;;;5040220;28;20485;-67
2023/05/13 14:25:27;;;;;;;3.97;2.40;;;24.70;40.60;;;;;;5047549;28;20029;-67
2023/05/13 14:27:52;;;;;;;4.50;1.70;;;24.80;40.60;;;;;;5024402;28;20045;-65
2023/05/13 14:30:18;;;;;;;2.38;1.83;;;24.90;41.10;;;;;;5051021;28;20371;-67
2023/05/13 14:32:44;;;;;;;5.00;2.53;;;25.10;40.60;;;;;;5051316;28;20045;-66
2023/05/13 14:35:10;;;;;;;5.05;2.67;;;25.10;40.00;;;;;;5050877;28;20032;-66
2023/05/13 14:37:36;;;;;;;6.68;2.83;;;25.10;39.80;;;;;;5042685;28;20063;-66
2023/05/13 14:40:02;;;;;;;4.32;2.58;;;25.00;40.00;;;;;;5042053;28;20095;-66
2023/05/13 14:42:28;;;;;;;3.30;2.20;;;25.00;40.10;;;;;;5046936;28;20053;-66
2023/05/13 14:44:54;;;;;;;4.40;2.33;;;25.00;40.20;;;;;;5050322;28;20043;-66
2023/05/13 14:47:19;;;;;;;5.95;2.35;;;25.00;40.30;;;;;;5048532;28;20071;-66
2023/05/13 14:49:45;;;;;;;4.13;3.17;;;25.00;40.40;;;;;;5047864;28;20137;-67
2023/05/13 14:52:11;;;;;;;5.25;3.17;;;24.90;40.60;;;;;;5050391;28;20383;-67
2023/05/13 14:54:37;;;;;;;4.78;2.28;;;24.90;40.20;;;;;;5044825;28;20041;-66
2023/05/13 14:57:04;;;;;;;3.80;2.20;;;24.90;39.60;;;;;;5042479;28;20065;-66
2023/05/13 14:59:31;;;;;;;2.70;2.00;;;24.90;39.60;;;;;;5040178;28;20034;-67
2023/05/13 15:01:56;;;;;;;6.72;2.38;;;24.90;39.70;;;;;;5041978;28;20031;-67
2023/05/13 15:04:22;;;;;;;7.35;2.10;;;25.00;39.40;;;;;;5040213;28;20037;-67
2023/05/13 15:06:48;;;;;;;6.22;2.33;;;25.10;39.50;;;;;;5046496;28;20388;-66
2023/05/13 15:09:13;;;;;;;4.50;2.28;;;25.20;39.60;;;;;;5047480;28;20060;-67
2023/05/13 15:11:40;;;;;;;3.63;2.20;;;25.30;39.40;;;;;;5031334;28;20464;-67
2023/05/13 15:14:06;;;;;;;4.43;2.42;;;25.30;39.30;;;;;;5040370;28;20033;-66
2023/05/13 15:16:31;;;;;;;4.93;2.45;;;25.30;39.20;;;;;;5038802;28;20389;-67
2023/05/13 15:18:57;;;;;;;10.88;2.30;;;25.30;39.20;;;;;;5041727;28;20467;-67
2023/05/13 15:21:23;;;;;;;4.05;2.33;;;25.50;39.20;;;;;;5040575;28;20116;-67
2023/05/13 15:23:48;;;;;;;3.30;2.05;;;25.50;39.20;;;;;;5047637;28;20472;-68
2023/05/13 15:26:14;;;;;;;4.10;2.03;;;25.50;39.70;;;;;;5036463;28;20452;-67
2023/05/13 15:28:40;;;;;;;3.05;2.00;;;25.40;39.00;;;;;;5043094;28;20037;-67
2023/05/13 15:31:05;;;;;;;4.43;2.72;;;25.30;39.20;;;;;;5045706;28;20258;-68
2023/05/13 15:33:31;;;;;;;4.63;2.58;;;25.40;39.50;;;;;;5036425;28;20037;-66
2023/05/13 15:35:57;;;;;;;3.72;2.30;;;25.50;39.50;;;;;;5036299;28;20037;-68
2023/05/13 15:38:23;;;;;;;4.68;2.00;;;25.40;39.10;;;;;;5048433;28;20041;-68
2023/05/13 15:40:49;;;;;;;3.15;2.15;;;25.20;39.00;;;;;;5045929;28;20041;-68
2023/05/13 15:43:15;;;;;;;4.72;2.70;;;25.30;39.10;;;;;;5045615;28;20049;-67
2023/05/13 15:45:40;;;;;;;3.80;2.42;;;25.20;39.10;;;;;;5039543;28;20418;-69
2023/05/13 15:48:06;;;;;;;2.63;1.92;;;25.20;39.30;;;;;;5048891;28;20040;-68
2023/05/13 15:50:32;;;;;;;2.92;1.83;;;25.10;39.30;;;;;;5047368;28;20052;-68
2023/05/13 15:52:58;;;;;;;4.95;2.58;;;25.00;39.40;;;;;;5047537;28;20041;-67
2023/05/13 15:55:24;;;;;;;4.57;2.60;;;24.80;39.80;;;;;;5048965;28;20118;-74
2023/05/13 15:57:50;;;;;;;4.88;2.47;;;24.70;41.20;;;;;;5044517;28;20505;-73
2023/05/13 16:00:16;;;;;;;3.90;2.42;;;24.40;42.10;;;;;;5044474;28;20108;-74
2023/05/13 16:02:42;;;;;;;5.75;3.10;;;24.30;43.20;;;;;;5022409;28;20089;-74
2023/05/13 16:05:10;;;;;;;6.65;3.40;;;24.20;43.90;;;;;;5042876;28;20108;-73
2023/05/13 16:07:37;;;;;;;4.63;2.65;;;24.10;44.80;;;;;;5037543;28;20094;-73
2023/05/13 16:10:03;;;;;;;7.22;3.03;;;23.90;45.80;;;;;;5044716;28;20456;-74
2023/05/13 16:12:30;;;;;;;5.57;3.10;;;23.80;46.80;;;;;;5029259;28;20037;-73
2023/05/13 16:14:56;;;;;;;6.00;3.08;;;23.70;47.40;;;;;;5048078;28;20036;-73
2023/05/13 16:17:21;;;;;;;4.75;2.70;;;23.60;48.00;;;;;;5042620;28;20175;-74
2023/05/13 16:19:48;;;;;;;5.20;2.45;;;23.50;48.40;;;;;;5046365;28;20578;-74
2023/05/13 16:22:26;;;;;;;6.10;2.80;;;23.40;48.90;;;;;;5028641;28;20053;-74
2023/05/13 16:24:51;;;;;;;3.80;2.80;;;23.30;49.30;;;;;;5045061;28;20081;-73
2023/05/13 16:27:17;;;;;;;5.75;3.03;;;23.20;49.60;;;;;;5045903;28;20067;-74
2023/05/13 16:29:43;;;;;;;5.53;2.95;;;23.10;50.00;;;;;;5036497;28;20086;-73
2023/05/13 16:32:11;;;;;;;3.75;2.63;;;23.00;50.10;;;;;;5047962;28;20125;-72
2023/05/13 16:34:36;;;;;;;6.95;2.33;;;22.90;50.40;;;;;;5035747;28;20037;-72
2023/05/13 16:37:02;;;;;;;4.57;2.65;;;22.90;50.60;;;;;;5032576;28;20494;-72
2023/05/13 16:39:29;;;;;;;5.72;2.67;;;22.80;50.80;;;;;;5038258;28;20078;-73
2023/05/13 16:41:55;;;;;;;5.60;2.50;;;22.70;50.70;;;;;;5042908;28;20030;-72
2023/05/13 16:44:20;;;;;;;6.68;3.00;;;22.60;50.80;;;;;;5047998;28;20043;-72
2023/05/13 16:46:46;;;;;;;5.20;2.78;;;22.50;51.00;;;;;;5041706;28;20025;-72
2023/05/13 16:49:11;;;;;;;3.22;2.03;;;22.50;51.20;;;;;;5037621;28;20502;-73
2023/05/13 16:51:37;;;;;;;4.53;2.40;;;22.50;51.00;;;;;;5039360;28;20076;-73
2023/05/13 16:54:03;;;;;;;3.83;2.67;;;22.40;51.00;;;;;;5044678;28;20487;-74
2023/05/13 16:56:30;;;;;;;6.07;2.60;;;22.40;50.90;;;;;;5046596;28;20091;-73
2023/05/13 16:58:56;;;;;;;5.90;2.40;;;22.40;50.80;;;;;;5046339;28;20111;-71
2023/05/13 17:01:21;;;;;;;3.65;2.10;;;22.30;50.90;;;;;;5040668;28;20119;-71
2023/05/13 17:03:47;;;;;;;2.72;2.40;;;22.30;51.00;;;;;;5046968;28;20096;-72
2023/05/13 17:06:12;;;;;;;3.25;2.60;;;22.20;51.10;;;;;;5044250;28;20029;-72
2023/05/13 17:08:38;;;;;;;4.60;2.33;;;22.20;51.00;;;;;;5035043;28;20052;-72
2023/05/13 17:11:04;;;;;;;4.65;2.63;;;22.10;51.10;;;;;;5034463;28;20502;-72
2023/05/13 17:13:30;;;;;;;3.95;2.25;;;22.10;51.30;;;;;;5033434;28;20103;-71
2023/05/13 17:15:55;;;;;;;4.03;2.70;;;22.00;51.30;;;;;;5037076;28;20033;-72
2023/05/13 17:18:21;;;;;;;3.22;2.22;;;22.00;51.60;;;;;;5033353;28;20045;-73
2023/05/13 17:20:46;;;;;;;3.33;2.25;;;22.00;51.70;;;;;;5036478;28;20047;-71
2023/05/13 17:23:12;;;;;;;3.20;2.42;;;22.00;51.90;;;;;;5029722;28;20104;-72
2023/05/13 17:25:38;;;;;;;3.42;2.47;;;21.90;51.70;;;;;;5038622;28;20410;-72
2023/05/13 17:28:06;;;;;;;3.45;2.55;;;21.80;51.60;;;;;;5052442;28;21307;-73
2023/05/13 17:30:32;;;;;;;5.82;2.97;;;21.80;51.90;;;;;;5036081;28;20508;-73
2023/05/13 17:32:58;;;;;;;4.57;2.67;;;21.70;52.00;;;;;;5047609;28;20102;-73
2023/05/13 17:35:24;;;;;;;3.38;2.35;;;21.60;51.90;;;;;;5051293;28;20436;-72
2023/05/13 17:37:49;;;;;;;3.40;2.45;;;21.50;52.20;;;;;;5049139;28;20042;-73
2023/05/13 17:40:15;;;;;;;3.08;2.25;;;21.50;52.20;;;;;;5051443;28;20032;-72
2023/05/13 17:42:40;;;;;;;3.70;2.58;;;21.40;52.30;;;;;;5056640;28;20516;-72
2023/05/13 17:45:07;;;;;;;3.78;2.45;;;21.40;52.30;;;;;;5069203;28;20028;-73
2023/05/13 17:47:32;;;;;;;3.33;2.42;;;21.30;52.40;;;;;;5067887;28;20056;-72
2023/05/13 17:49:58;;;;;;;3.05;2.20;;;21.30;52.40;;;;;;5071696;28;20500;-73
2023/05/13 17:52:24;;;;;;;4.60;2.60;;;21.20;52.50;;;;;;5067125;28;20037;-73
2023/05/13 17:54:49;;;;;;;5.15;2.42;;;21.10;52.70;;;;;;5072025;28;20134;-72
2023/05/13 17:57:15;;;;;;;3.80;2.53;;;21.10;52.90;;;;;;5052885;28;20037;-72
2023/05/13 17:59:42;;;;;;;6.18;2.40;;;21.00;53.00;;;;;;5086810;28;20045;-72
2023/05/13 18:02:07;;;;;;;3.28;2.28;;;21.00;53.10;;;;;;5072402;28;20047;-72
2023/05/13 18:04:33;;;;;;;3.88;2.80;;;20.80;53.20;;;;;;5055483;28;20037;-72
2023/05/13 18:06:59;;;;;;;4.25;2.90;;;20.80;53.40;;;;;;5082154;28;20051;-72
2023/05/13 18:09:25;;;;;;;3.10;2.20;;;20.70;53.50;;;;;;5073961;28;20041;-72
2023/05/13 18:11:50;;;;;;;5.68;2.53;;;20.70;53.70;;;;;;5069404;28;20493;-72